Have a Safe July 4th! 

Flight Track Log - Related Links

Times and Time Zones

All times are in EDT time to prevent confusion due to time zone crossing. See the N141EA flight status page for this flight to view local times or setup timezone preferences in your user account.

Time Position Orientation Groundspeed Altitude Reporting Facility
EDT Latitude Longitude Course Direction KTS MPH feet Rate Location/Type
Tue 11:05:37 AM 34.6178 -116.9564 71° East 234 269 11,500  Level Los Angeles Center
Tue 11:06:38 AM 34.6525 -116.8617 66° East 245 282 13,200 1,561 Climbing Los Angeles Center
Tue 11:07:40 AM 34.6808 -116.7811 67° East 255 293 14,700 1,452 Climbing Los Angeles Center
Tue 11:08:42 AM 34.7114 -116.6969 66° East 268 308 16,200 1,324 Climbing Los Angeles Center
Tue 11:09:56 AM 34.7428 -116.6086 67° East 281 323 17,700 1,368 Climbing Los Angeles Center
Tue 11:10:00 AM 34.7663 -116.5346 71° East  Level FlightAware Approximate
Tue 11:10:58 AM 34.7822 -116.4986 66° East 293 337 19,300  Level Los Angeles Center
Tue 11:12:00 AM 34.7958 -116.3978 81° East 305 351 20,800 1,597 Climbing Los Angeles Center
Tue 11:13:02 AM 34.7953 -116.2717 90° East 310 357 22,600 1,500 Climbing Los Angeles Center
Tue 11:14:04 AM 34.7931 -116.1622 91° East 316 364 23,900 1,258 Climbing Los Angeles Center
Tue 11:15:06 AM 34.7925 -116.0489 90° East 327 376 25,200 1,403 Climbing Los Angeles Center
Tue 11:16:08 AM 34.7908 -115.9356 91° East 334 384 26,800 1,403 Climbing Los Angeles Center
Tue 11:17:10 AM 34.7892 -115.8217 91° East 337 388 28,100 1,355 Climbing Los Angeles Center
Tue 11:18:12 AM 34.7881 -115.7064 91° East 340 391 29,600 1,403 Climbing Los Angeles Center
Tue 11:19:14 AM 34.7858 -115.5733 91° East 329 379 31,000 1,220 Climbing Los Angeles Center
Tue 11:20:15 AM 34.7836 -115.4750 92° East 334 384 32,100 976 Climbing Los Angeles Center
Tue 11:21:17 AM 34.7825 -115.3375 91° East 340 391 33,000 435 Climbing Los Angeles Center
Tue 11:22:19 AM 34.7803 -115.2108 91° East 373 429 33,000 677 Level Los Angeles Center
Tue 11:23:21 AM 34.7781 -115.0781 91° East 390 449 34,400 1,258 Climbing Los Angeles Center
Tue 11:24:23 AM 34.7767 -114.9572 91° East 362 417 35,600 968 Climbing Los Angeles Center
Tue 11:25:25 AM 34.7722 -114.8358 93° East 361 415 36,400 774 Climbing Los Angeles Center
Tue 11:26:27 AM 34.7711 -114.7164 91° East 356 410 37,200 677 Climbing Los Angeles Center
Tue 11:27:29 AM 34.7675 -114.5753 92° East 351 404 37,800 435 Climbing Los Angeles Center
Tue 11:28:31 AM 34.7656 -114.4561 91° East 353 406 38,100 484 Climbing Los Angeles Center
Tue 11:29:33 AM 34.7822 -114.3372 80° East 356 410 38,800 435 Climbing Los Angeles Center
Tue 11:30:35 AM 34.8000 -114.2219 79° East 348 400 39,000 244 Climbing Los Angeles Center
Tue 11:31:36 AM 34.8158 -114.1081 80° East 343 395 39,300 341 Climbing Los Angeles Center
Tue 11:32:38 AM 34.8317 -113.9958 80° East 338 389 39,700 242 Climbing Los Angeles Center
Tue 11:33:40 AM 34.8478 -113.8756 81° East 330 380 39,800 122 Climbing Los Angeles Center
Tue 11:34:16 AM 34.8569 -113.8086 81° East 332 382 39,900 184 Climbing Albuquerque Center
Tue 11:35:18 AM 34.8736 -113.6967 80° East 335 386 40,100 273 Climbing Albuquerque Center
Tue 11:35:44 AM 34.8786 -113.6544 82° East 333 383 40,300 341 Climbing Los Angeles Center
Tue 11:36:46 AM 34.8919 -113.5481 81° East 321 369 40,600 242 Climbing Los Angeles Center
Tue 11:37:48 AM 34.9089 -113.4228 81° East 316 364 40,800 122 Climbing Los Angeles Center
Tue 11:38:24 AM 34.9172 -113.3592 81° East 316 364 40,800 122 Level Albuquerque Center
Tue 11:39:26 AM 34.9294 -113.2528 82° East 319 367 41,000 97 Climbing Albuquerque Center
Tue 11:40:28 AM 34.9444 -113.1489 80° East 317 365 41,000  Level Albuquerque Center
Tue 11:41:30 AM 34.9586 -113.0444 81° East 316 364 41,000  Level Albuquerque Center
Tue 11:42:32 AM 34.9747 -112.9161 81° East 320 368 41,000  Level Albuquerque Center
Tue 11:43:35 AM 34.9883 -112.8067 81° East 327 376 41,000  Level Albuquerque Center
Tue 11:44:37 AM 35.0028 -112.6978 81° East 329 379 41,000  Level Albuquerque Center
Tue 11:45:39 AM 35.0158 -112.5878 82° East 330 380 41,000  Level Albuquerque Center
Tue 11:46:41 AM 35.0289 -112.4761 82° East 333 383 41,000  Level Albuquerque Center
Tue 11:47:43 AM 35.0450 -112.3408 82° East 338 389 41,000  Level Albuquerque Center
Tue 11:48:45 AM 35.0592 -112.2272 81° East 339 390 41,000  Level Albuquerque Center
Tue 11:49:47 AM 35.0733 -112.1139 81° East 341 392 41,000  Level Albuquerque Center
Tue 11:50:49 AM 35.0856 -111.9994 83° East 342 394 41,000  Level Albuquerque Center
Tue 11:51:51 AM 35.1014 -111.8833 81° East 347 399 41,000  Level Albuquerque Center
Tue 11:52:53 AM 35.1181 -111.7431 82° East 350 403 41,000  Level Albuquerque Center
Tue 11:53:55 AM 35.1322 -111.6375 81° East 347 399 41,000  Level Albuquerque Center
Tue 11:54:57 AM 35.1494 -111.5208 80° East 347 399 41,000  Level Albuquerque Center
Tue 11:55:59 AM 35.1644 -111.3811 82° East 346 398 41,000  Level Albuquerque Center
Tue 11:57:01 AM 35.1772 -111.2622 82° East 351 404 41,000  Level Albuquerque Center
Tue 11:58:03 AM 35.1919 -111.1433 81° East 353 406 41,000  Level Albuquerque Center
Tue 11:59:05 AM 35.2058 -111.0142 82° East 365 420 41,000  Level Albuquerque Center
Tue 12:00:07 PM 35.2217 -110.8731 82° East 373 429 41,000  Level Albuquerque Center
Tue 12:01:09 PM 35.2336 -110.7525 83° East 374 430 41,000  Level Albuquerque Center
Tue 12:02:11 PM 35.2497 -110.6200 81° East 360 414 41,000  Level Albuquerque Center
Tue 12:03:13 PM 35.2628 -110.5056 82° East 356 410 41,000  Level Albuquerque Center
Tue 12:04:15 PM 35.2744 -110.3917 83° East 354 407 41,000  Level Albuquerque Center
Tue 12:05:17 PM 35.2867 -110.2592 84° East 352 405 41,000  Level Albuquerque Center
Tue 12:06:19 PM 35.2997 -110.1489 82° East 346 398 41,000  Level Albuquerque Center
Tue 12:07:21 PM 35.3139 -110.0189 82° East 346 398 41,000  Level Albuquerque Center
Tue 12:08:23 PM 35.3258 -109.9064 83° East 347 399 41,000  Level Albuquerque Center
Tue 12:09:25 PM 35.3381 -109.7722 84° East 352 405 41,000  Level Albuquerque Center
Tue 12:10:27 PM 35.3492 -109.6564 83° East 357 411 41,000  Level Albuquerque Center
Tue 12:11:29 PM 35.3617 -109.5228 83° East 356 410 41,000  Level Albuquerque Center
Tue 12:12:31 PM 35.3744 -109.4081 82° East 355 409 41,000  Level Albuquerque Center
Tue 12:13:33 PM 35.3856 -109.2731 84° East 357 411 41,000  Level Albuquerque Center
Tue 12:14:35 PM 35.3972 -109.1572 83° East 358 412 41,000  Level Albuquerque Center
Tue 12:15:37 PM 35.4106 -109.0239 83° East 356 410 41,000  Level Albuquerque Center
Tue 12:16:39 PM 35.4214 -108.9072 83° East 359 413 41,000  Level Albuquerque Center
Tue 12:17:41 PM 35.4336 -108.7686 84° East 365 420 41,000  Level Albuquerque Center
Tue 12:18:43 PM 35.4442 -108.6506 84° East 366 421 41,000  Level Albuquerque Center
Tue 12:19:45 PM 35.4567 -108.5147 84° East 362 417 41,000  Level Albuquerque Center
Tue 12:20:47 PM 35.4664 -108.3978 84° East 362 417 41,000  Level Albuquerque Center
Tue 12:21:49 PM 35.4792 -108.2617 83° East 361 415 41,000  Level Albuquerque Center
Tue 12:22:51 PM 35.4883 -108.1425 85° East 365 420 41,000  Level Albuquerque Center
Tue 12:23:53 PM 35.5011 -108.0008 84° East 372 428 41,000  Level Albuquerque Center
Tue 12:24:55 PM 35.5117 -107.8783 84° East 376 433 41,000  Level Albuquerque Center
Tue 12:25:58 PM 35.5233 -107.7353 84° East 377 434 41,000  Level Albuquerque Center
Tue 12:27:00 PM 35.5339 -107.6078 84° East 387 445 41,000  Level Albuquerque Center
Tue 12:28:02 PM 35.5439 -107.4600 85° East 390 449 41,000  Level Albuquerque Center
Tue 12:29:04 PM 35.5553 -107.3364 84° East 383 441 41,000  Level Albuquerque Center
Tue 12:30:06 PM 35.5656 -107.2156 84° East 376 433 41,000  Level Albuquerque Center
Tue 12:31:08 PM 35.5739 -107.0967 85° East 369 425 41,000  Level Albuquerque Center
Tue 12:32:10 PM 35.5853 -106.9428 85° East 373 429 41,000  Level Albuquerque Center
Tue 12:33:12 PM 35.5964 -106.8147 84° East 374 430 41,000  Level Albuquerque Center
Tue 12:34:14 PM 35.6061 -106.6917 84° East 365 420 41,000  Level Albuquerque Center
Tue 12:35:16 PM 35.6150 -106.5700 85° East 359 413 41,000  Level Albuquerque Center
Tue 12:36:18 PM 35.6233 -106.4472 85° East 359 413 41,000  Level Albuquerque Center
Tue 12:37:21 PM 35.6308 -106.3258 86° East 357 411 41,000  Level Albuquerque Center
Tue 12:38:22 PM 35.6422 -106.2064 83° East 352 405 41,000  Level Albuquerque Center
Tue 12:39:24 PM 35.6508 -106.0597 86° East 356 410 41,000  Level Albuquerque Center
Tue 12:40:26 PM 35.6594 -105.9367 85° East 360 414 41,000  Level Albuquerque Center
Tue 12:41:28 PM 35.6672 -105.8133 86° East 362 417 41,000  Level Albuquerque Center
Tue 12:42:30 PM 35.6756 -105.6897 85° East 362 417 41,000  Level Albuquerque Center
Tue 12:43:32 PM 35.6831 -105.5689 86° East 357 411 41,000  Level Albuquerque Center
Tue 12:44:35 PM 35.6906 -105.4331 86° East 355 409 41,000  Level Albuquerque Center
Tue 12:45:37 PM 35.6992 -105.3119 85° East 353 406 41,000  Level Albuquerque Center
Tue 12:46:39 PM 35.7056 -105.1928 86° East 348 400 41,000  Level Albuquerque Center
Tue 12:47:41 PM 35.7114 -105.0742 86° East 345 397 41,000  Level Albuquerque Center
Tue 12:48:43 PM 35.7206 -104.9353 85° East 345 397 41,000  Level Albuquerque Center
Tue 12:49:45 PM 35.7283 -104.8156 85° East 347 399 41,000  Level Albuquerque Center
Tue 12:50:47 PM 35.7336 -104.6961 87° East 347 399 41,000 -48 Level Albuquerque Center
Tue 12:51:49 PM 35.7411 -104.5756 86° East 348 400 40,900 -629 Descending Albuquerque Center
Tue 12:52:51 PM 35.7478 -104.4522 86° East 354 407 39,700 -1,210 Descending Albuquerque Center
Tue 12:53:53 PM 35.7550 -104.3211 86° East 371 427 38,400 -1,306 Descending Albuquerque Center
Tue 12:54:55 PM 35.7611 -104.1828 87° East 392 451 37,000 -677 Descending Albuquerque Center
Tue 12:55:57 PM 35.7678 -104.0456 87° East 396 456 37,000  Level Albuquerque Center
Tue 12:56:59 PM 35.7772 -103.9175 85° East 379 436 37,000 -387 Level Albuquerque Center
Tue 12:58:01 PM 35.7886 -103.7758 84° East 358 412 36,200 -1,790 Descending Albuquerque Center
Tue 12:59:03 PM 35.8011 -103.6508 83° East 364 419 33,300 -2,468 Descending Albuquerque Center
Tue 01:00:05 PM 35.8119 -103.5214 84° East 375 432 31,100 -1,984 Descending Albuquerque Center
Tue 01:01:07 PM 35.8250 -103.3969 83° East 366 421 29,200 -1,742 Descending Albuquerque Center
Tue 01:02:09 PM 35.8589 -103.2867 69° East 348 400 27,500 -1,694 Descending Albuquerque Center
Tue 01:03:11 PM 35.8928 -103.1778 69° East 339 390 25,700 -1,694 Descending Albuquerque Center
Tue 01:04:13 PM 35.9250 -103.0728 69° East 329 379 24,000 -1,645 Descending Albuquerque Center
Tue 01:05:15 PM 35.9572 -102.9714 69° East 319 367 22,300 -2,032 Descending Albuquerque Center
Tue 01:06:17 PM 35.9894 -102.8692 69° East 309 356 19,800 -2,226 Descending Albuquerque Center
Tue 01:07:19 PM 36.0222 -102.7683 68° East 312 359 17,700 -3,194 Descending Albuquerque Center
Tue 01:08:21 PM 36.0556 -102.6622 69° East 283 326 13,200 -3,968 Descending Albuquerque Center
Tue 01:09:23 PM 36.0667 -102.5753 81° East 263 303 9,500 -3,194 Descending Albuquerque Center
Tue 01:10:25 PM 36.0614 -102.4933 95° East 246 283 6,600 -1,548 Descending Albuquerque Center
Tue 01:11:27 PM 36.0461 -102.4522 115° Southeast 176 203 6,300 -145 Descending Albuquerque Center
Tue 01:12:29 PM 36.0344 -102.4056 107° East 152 175 6,300  Level Albuquerque Center
Tue 01:13:31 PM 36.0144 -102.3603 119° Southeast 149 171 6,300  Level Albuquerque Center
Tue 01:14:33 PM 35.9889 -102.3050 120° Southeast 152 175 6,300 -290 Level Albuquerque Center
Tue 01:15:35 PM 35.9697 -102.2586 117° Southeast 153 176 5,700 -532 Descending Albuquerque Center
Tue 01:16:37 PM 35.9500 -102.2142 119° Southeast 150 173 5,200 -484 Descending Albuquerque Center

Login

Don't have an account? Register now (free) for customized features, flight alerts, and more!